sensor_id;sensor_type;location;lat;lon;timestamp;P1;durP1;ratioP1;P2;durP2;ratioP2
72601;SDS011;60644;55.858;37.390;2022-08-26T00:01:49;26.67;;;14.95;;
72601;SDS011;60644;55.858;37.390;2022-08-26T00:04:16;22.27;;;14.45;;
72601;SDS011;60644;55.858;37.390;2022-08-26T00:06:41;23.87;;;15.10;;
72601;SDS011;60644;55.858;37.390;2022-08-26T00:09:08;25.13;;;16.23;;
72601;SDS011;60644;55.858;37.390;2022-08-26T00:11:34;24.30;;;14.98;;
72601;SDS011;60644;55.858;37.390;2022-08-26T00:14:00;27.60;;;15.77;;
72601;SDS011;60644;55.858;37.390;2022-08-26T00:16:26;34.75;;;16.23;;
72601;SDS011;60644;55.858;37.390;2022-08-26T00:18:53;19.03;;;15.23;;
72601;SDS011;60644;55.858;37.390;2022-08-26T00:21:21;24.17;;;16.45;;
72601;SDS011;60644;55.858;37.390;2022-08-26T00:23:49;24.13;;;17.90;;
72601;SDS011;60644;55.858;37.390;2022-08-26T00:26:15;33.17;;;24.60;;
72601;SDS011;60644;55.858;37.390;2022-08-26T00:28:41;30.53;;;21.93;;
72601;SDS011;60644;55.858;37.390;2022-08-26T00:31:07;28.58;;;19.75;;
72601;SDS011;60644;55.858;37.390;2022-08-26T00:33:33;25.58;;;18.20;;
72601;SDS011;60644;55.858;37.390;2022-08-26T00:35:59;27.53;;;16.83;;
72601;SDS011;60644;55.858;37.390;2022-08-26T00:38:25;25.30;;;17.17;;
72601;SDS011;60644;55.858;37.390;2022-08-26T00:40:52;26.17;;;16.30;;
72601;SDS011;60644;55.858;37.390;2022-08-26T00:43:20;26.63;;;17.42;;
72601;SDS011;60644;55.858;37.390;2022-08-26T00:45:51;22.67;;;15.83;;
72601;SDS011;60644;55.858;37.390;2022-08-26T00:48:22;22.77;;;16.50;;
72601;SDS011;60644;55.858;37.390;2022-08-26T00:50:54;25.20;;;14.98;;
72601;SDS011;60644;55.858;37.390;2022-08-26T00:53:22;26.33;;;16.65;;
72601;SDS011;60644;55.858;37.390;2022-08-26T00:56:09;25.75;;;16.50;;
72601;SDS011;60644;55.858;37.390;2022-08-26T00:58:42;25.77;;;17.00;;
72601;SDS011;60644;55.858;37.390;2022-08-26T01:01:09;29.17;;;17.00;;
72601;SDS011;60644;55.858;37.390;2022-08-26T01:03:36;31.13;;;18.77;;
72601;SDS011;60644;55.858;37.390;2022-08-26T01:06:02;25.83;;;18.25;;
72601;SDS011;60644;55.858;37.390;2022-08-26T01:08:31;26.80;;;16.80;;
72601;SDS011;60644;55.858;37.390;2022-08-26T01:10:56;24.63;;;16.33;;
72601;SDS011;60644;55.858;37.390;2022-08-26T01:13:24;23.52;;;16.58;;
72601;SDS011;60644;55.858;37.390;2022-08-26T01:15:53;29.88;;;16.50;;
72601;SDS011;60644;55.858;37.390;2022-08-26T01:18:21;26.08;;;16.45;;
72601;SDS011;60644;55.858;37.390;2022-08-26T01:23:42;25.57;;;16.43;;
72601;SDS011;60644;55.858;37.390;2022-08-26T01:26:12;24.52;;;16.55;;
72601;SDS011;60644;55.858;37.390;2022-08-26T01:28:40;24.38;;;15.25;;
72601;SDS011;60644;55.858;37.390;2022-08-26T01:31:33;24.35;;;15.38;;
72601;SDS011;60644;55.858;37.390;2022-08-26T01:36:35;22.73;;;15.60;;
72601;SDS011;60644;55.858;37.390;2022-08-26T01:39:03;23.20;;;15.23;;
72601;SDS011;60644;55.858;37.390;2022-08-26T01:41:33;22.27;;;15.23;;
72601;SDS011;60644;55.858;37.390;2022-08-26T01:44:00;24.33;;;16.08;;
72601;SDS011;60644;55.858;37.390;2022-08-26T01:46:29;23.50;;;15.50;;
72601;SDS011;60644;55.858;37.390;2022-08-26T01:48:57;24.87;;;14.97;;
72601;SDS011;60644;55.858;37.390;2022-08-26T01:51:27;21.10;;;14.80;;
72601;SDS011;60644;55.858;37.390;2022-08-26T01:53:54;26.80;;;14.93;;
72601;SDS011;60644;55.858;37.390;2022-08-26T01:56:20;22.58;;;15.60;;
72601;SDS011;60644;55.858;37.390;2022-08-26T01:58:49;25.38;;;15.65;;
72601;SDS011;60644;55.858;37.390;2022-08-26T02:01:18;24.13;;;15.63;;
72601;SDS011;60644;55.858;37.390;2022-08-26T02:06:34;25.17;;;16.10;;
72601;SDS011;60644;55.858;37.390;2022-08-26T02:09:03;20.60;;;14.68;;
72601;SDS011;60644;55.858;37.390;2022-08-26T02:11:30;22.70;;;14.63;;
72601;SDS011;60644;55.858;37.390;2022-08-26T02:13:58;20.47;;;15.17;;
72601;SDS011;60644;55.858;37.390;2022-08-26T02:16:28;24.02;;;14.95;;
72601;SDS011;60644;55.858;37.390;2022-08-26T02:18:58;26.52;;;15.93;;
72601;SDS011;60644;55.858;37.390;2022-08-26T02:21:25;24.08;;;15.10;;
72601;SDS011;60644;55.858;37.390;2022-08-26T02:23:52;24.15;;;15.32;;
72601;SDS011;60644;55.858;37.390;2022-08-26T02:26:19;23.17;;;14.27;;
72601;SDS011;60644;55.858;37.390;2022-08-26T02:28:51;21.83;;;15.27;;
72601;SDS011;60644;55.858;37.390;2022-08-26T02:31:26;24.85;;;15.27;;
72601;SDS011;60644;55.858;37.390;2022-08-26T02:33:51;21.90;;;15.60;;
72601;SDS011;60644;55.858;37.390;2022-08-26T02:36:21;24.83;;;15.30;;
72601;SDS011;60644;55.858;37.390;2022-08-26T02:38:48;24.38;;;15.73;;
72601;SDS011;60644;55.858;37.390;2022-08-26T02:41:14;29.03;;;16.13;;
72601;SDS011;60644;55.858;37.390;2022-08-26T02:43:42;23.98;;;15.07;;
72601;SDS011;60644;55.858;37.390;2022-08-26T02:46:11;23.58;;;15.00;;
72601;SDS011;60644;55.858;37.390;2022-08-26T02:48:38;24.60;;;15.63;;
72601;SDS011;60644;55.858;37.390;2022-08-26T02:51:03;23.63;;;15.80;;
72601;SDS011;60644;55.858;37.390;2022-08-26T02:53:38;24.77;;;15.73;;
72601;SDS011;60644;55.858;37.390;2022-08-26T02:56:06;23.90;;;15.88;;
72601;SDS011;60644;55.858;37.390;2022-08-26T02:58:32;22.77;;;14.88;;
72601;SDS011;60644;55.858;37.390;2022-08-26T03:00:58;19.80;;;14.43;;
72601;SDS011;60644;55.858;37.390;2022-08-26T03:03:24;22.67;;;15.27;;
72601;SDS011;60644;55.858;37.390;2022-08-26T03:05:52;23.48;;;15.55;;
72601;SDS011;60644;55.858;37.390;2022-08-26T03:08:19;26.65;;;15.20;;
72601;SDS011;60644;55.858;37.390;2022-08-26T03:10:45;26.98;;;16.33;;
72601;SDS011;60644;55.858;37.390;2022-08-26T03:13:12;23.70;;;15.40;;
72601;SDS011;60644;55.858;37.390;2022-08-26T03:15:38;23.40;;;15.50;;
72601;SDS011;60644;55.858;37.390;2022-08-26T03:18:04;25.15;;;15.93;;
72601;SDS011;60644;55.858;37.390;2022-08-26T03:20:35;22.27;;;15.43;;
72601;SDS011;60644;55.858;37.390;2022-08-26T03:23:01;23.97;;;15.37;;
72601;SDS011;60644;55.858;37.390;2022-08-26T03:25:29;26.92;;;15.95;;
72601;SDS011;60644;55.858;37.390;2022-08-26T03:27:56;25.38;;;15.57;;
72601;SDS011;60644;55.858;37.390;2022-08-26T03:30:29;22.20;;;15.98;;
72601;SDS011;60644;55.858;37.390;2022-08-26T03:33:10;26.90;;;16.55;;
72601;SDS011;60644;55.858;37.390;2022-08-26T03:35:37;25.90;;;15.37;;
72601;SDS011;60644;55.858;37.390;2022-08-26T03:38:06;25.08;;;16.73;;
72601;SDS011;60644;55.858;37.390;2022-08-26T03:40:33;25.08;;;16.02;;
72601;SDS011;60644;55.858;37.390;2022-08-26T03:43:00;24.35;;;16.05;;
72601;SDS011;60644;55.858;37.390;2022-08-26T03:45:27;24.48;;;15.93;;
72601;SDS011;60644;55.858;37.390;2022-08-26T03:47:53;24.17;;;16.37;;
72601;SDS011;60644;55.858;37.390;2022-08-26T03:50:20;24.85;;;16.00;;
72601;SDS011;60644;55.858;37.390;2022-08-26T03:52:47;27.50;;;16.30;;
72601;SDS011;60644;55.858;37.390;2022-08-26T03:55:14;25.80;;;16.02;;
72601;SDS011;60644;55.858;37.390;2022-08-26T03:57:41;24.70;;;16.03;;
72601;SDS011;60644;55.858;37.390;2022-08-26T04:00:09;25.40;;;16.73;;
72601;SDS011;60644;55.858;37.390;2022-08-26T04:02:39;29.15;;;17.60;;
72601;SDS011;60644;55.858;37.390;2022-08-26T04:05:08;27.77;;;15.68;;
72601;SDS011;60644;55.858;37.390;2022-08-26T04:07:35;25.77;;;16.95;;
72601;SDS011;60644;55.858;37.390;2022-08-26T04:10:01;24.80;;;16.17;;
72601;SDS011;60644;55.858;37.390;2022-08-26T04:12:28;24.63;;;17.05;;
72601;SDS011;60644;55.858;37.390;2022-08-26T04:14:54;25.20;;;15.93;;
72601;SDS011;60644;55.858;37.390;2022-08-26T04:17:20;25.33;;;16.80;;
72601;SDS011;60644;55.858;37.390;2022-08-26T04:19:50;26.95;;;17.10;;
72601;SDS011;60644;55.858;37.390;2022-08-26T04:22:17;27.52;;;17.33;;
72601;SDS011;60644;55.858;37.390;2022-08-26T04:24:43;27.92;;;17.25;;
72601;SDS011;60644;55.858;37.390;2022-08-26T04:27:10;28.85;;;18.45;;
72601;SDS011;60644;55.858;37.390;2022-08-26T04:29:36;32.30;;;19.67;;
72601;SDS011;60644;55.858;37.390;2022-08-26T04:32:06;30.60;;;17.70;;
72601;SDS011;60644;55.858;37.390;2022-08-26T04:34:33;28.17;;;18.08;;
72601;SDS011;60644;55.858;37.390;2022-08-26T04:37:00;30.85;;;19.05;;
72601;SDS011;60644;55.858;37.390;2022-08-26T04:39:26;29.35;;;17.70;;
72601;SDS011;60644;55.858;37.390;2022-08-26T04:41:52;26.63;;;18.17;;
72601;SDS011;60644;55.858;37.390;2022-08-26T04:44:21;30.15;;;19.45;;
72601;SDS011;60644;55.858;37.390;2022-08-26T04:46:50;26.67;;;18.77;;
72601;SDS011;60644;55.858;37.390;2022-08-26T04:49:16;25.38;;;18.38;;
72601;SDS011;60644;55.858;37.390;2022-08-26T04:51:42;26.38;;;18.23;;
72601;SDS011;60644;55.858;37.390;2022-08-26T04:54:08;27.10;;;18.73;;
72601;SDS011;60644;55.858;37.390;2022-08-26T04:56:38;28.05;;;19.38;;
72601;SDS011;60644;55.858;37.390;2022-08-26T04:59:06;32.08;;;21.30;;
72601;SDS011;60644;55.858;37.390;2022-08-26T05:01:34;30.10;;;22.58;;
72601;SDS011;60644;55.858;37.390;2022-08-26T05:04:00;39.87;;;24.40;;
72601;SDS011;60644;55.858;37.390;2022-08-26T05:06:27;37.42;;;22.10;;
72601;SDS011;60644;55.858;37.390;2022-08-26T05:08:53;31.15;;;19.83;;
72601;SDS011;60644;55.858;37.390;2022-08-26T05:11:19;29.70;;;21.13;;
72601;SDS011;60644;55.858;37.390;2022-08-26T05:13:45;33.67;;;20.10;;
72601;SDS011;60644;55.858;37.390;2022-08-26T05:16:12;33.33;;;19.45;;
72601;SDS011;60644;55.858;37.390;2022-08-26T05:18:40;34.03;;;18.98;;
72601;SDS011;60644;55.858;37.390;2022-08-26T05:21:12;35.70;;;18.83;;
72601;SDS011;60644;55.858;37.390;2022-08-26T05:23:46;29.98;;;18.83;;
72601;SDS011;60644;55.858;37.390;2022-08-26T05:26:13;30.73;;;19.03;;
72601;SDS011;60644;55.858;37.390;2022-08-26T05:28:39;28.90;;;19.33;;
72601;SDS011;60644;55.858;37.390;2022-08-26T05:31:12;31.90;;;19.25;;
72601;SDS011;60644;55.858;37.390;2022-08-26T05:33:40;30.65;;;20.25;;
72601;SDS011;60644;55.858;37.390;2022-08-26T05:36:09;31.35;;;19.25;;
72601;SDS011;60644;55.858;37.390;2022-08-26T05:38:37;30.20;;;18.67;;
72601;SDS011;60644;55.858;37.390;2022-08-26T05:41:03;29.20;;;17.42;;
72601;SDS011;60644;55.858;37.390;2022-08-26T05:43:29;25.98;;;17.52;;
72601;SDS011;60644;55.858;37.390;2022-08-26T05:45:54;31.10;;;17.47;;
72601;SDS011;60644;55.858;37.390;2022-08-26T05:48:21;32.05;;;17.85;;
72601;SDS011;60644;55.858;37.390;2022-08-26T05:50:49;25.45;;;16.42;;
72601;SDS011;60644;55.858;37.390;2022-08-26T05:53:17;25.25;;;15.80;;
72601;SDS011;60644;55.858;37.390;2022-08-26T05:55:49;25.23;;;15.25;;
72601;SDS011;60644;55.858;37.390;2022-08-26T05:58:17;24.43;;;13.27;;
72601;SDS011;60644;55.858;37.390;2022-08-26T06:00:45;22.70;;;13.85;;
72601;SDS011;60644;55.858;37.390;2022-08-26T06:03:20;20.85;;;13.60;;
72601;SDS011;60644;55.858;37.390;2022-08-26T06:05:45;21.35;;;13.65;;
72601;SDS011;60644;55.858;37.390;2022-08-26T06:08:11;19.80;;;12.60;;
72601;SDS011;60644;55.858;37.390;2022-08-26T06:10:44;19.45;;;12.25;;
72601;SDS011;60644;55.858;37.390;2022-08-26T06:13:16;21.13;;;12.05;;
72601;SDS011;60644;55.858;37.390;2022-08-26T06:15:44;17.85;;;12.45;;
72601;SDS011;60644;55.858;37.390;2022-08-26T06:18:15;21.58;;;12.10;;
72601;SDS011;60644;55.858;37.390;2022-08-26T06:20:44;20.30;;;12.10;;
72601;SDS011;60644;55.858;37.390;2022-08-26T06:23:11;18.70;;;11.05;;
72601;SDS011;60644;55.858;37.390;2022-08-26T06:25:56;16.80;;;10.90;;
72601;SDS011;60644;55.858;37.390;2022-08-26T06:28:22;18.27;;;10.55;;
72601;SDS011;60644;55.858;37.390;2022-08-26T06:30:49;20.30;;;10.77;;
72601;SDS011;60644;55.858;37.390;2022-08-26T06:33:16;16.87;;;10.17;;
72601;SDS011;60644;55.858;37.390;2022-08-26T06:35:42;17.90;;;10.43;;
72601;SDS011;60644;55.858;37.390;2022-08-26T06:38:08;18.35;;;10.68;;
72601;SDS011;60644;55.858;37.390;2022-08-26T06:40:45;13.98;;;10.35;;
72601;SDS011;60644;55.858;37.390;2022-08-26T06:43:13;15.23;;;9.75;;
72601;SDS011;60644;55.858;37.390;2022-08-26T06:45:41;13.40;;;9.93;;
72601;SDS011;60644;55.858;37.390;2022-08-26T06:48:09;15.43;;;9.90;;
72601;SDS011;60644;55.858;37.390;2022-08-26T06:50:36;15.23;;;10.02;;
72601;SDS011;60644;55.858;37.390;2022-08-26T06:53:02;13.88;;;9.45;;
72601;SDS011;60644;55.858;37.390;2022-08-26T06:55:28;15.67;;;10.30;;
72601;SDS011;60644;55.858;37.390;2022-08-26T06:57:54;15.85;;;10.15;;
72601;SDS011;60644;55.858;37.390;2022-08-26T07:00:21;18.67;;;9.80;;
72601;SDS011;60644;55.858;37.390;2022-08-26T07:02:47;16.17;;;9.73;;
72601;SDS011;60644;55.858;37.390;2022-08-26T07:05:13;16.13;;;10.60;;
72601;SDS011;60644;55.858;37.390;2022-08-26T07:07:39;15.57;;;9.10;;
72601;SDS011;60644;55.858;37.390;2022-08-26T07:10:05;15.90;;;9.23;;
72601;SDS011;60644;55.858;37.390;2022-08-26T07:12:33;15.55;;;9.02;;
72601;SDS011;60644;55.858;37.390;2022-08-26T07:15:00;13.20;;;9.35;;
72601;SDS011;60644;55.858;37.390;2022-08-26T07:17:28;16.03;;;9.00;;
72601;SDS011;60644;55.858;37.390;2022-08-26T07:19:54;11.43;;;8.95;;
72601;SDS011;60644;55.858;37.390;2022-08-26T07:22:20;11.93;;;8.55;;
72601;SDS011;60644;55.858;37.390;2022-08-26T07:24:46;11.83;;;8.63;;
72601;SDS011;60644;55.858;37.390;2022-08-26T07:27:13;12.75;;;8.70;;
72601;SDS011;60644;55.858;37.390;2022-08-26T07:29:40;13.90;;;9.38;;
72601;SDS011;60644;55.858;37.390;2022-08-26T07:32:11;16.92;;;9.40;;
72601;SDS011;60644;55.858;37.390;2022-08-26T07:34:38;14.75;;;9.45;;
72601;SDS011;60644;55.858;37.390;2022-08-26T07:37:06;15.23;;;9.30;;
72601;SDS011;60644;55.858;37.390;2022-08-26T07:39:32;14.63;;;8.98;;
72601;SDS011;60644;55.858;37.390;2022-08-26T07:41:59;14.73;;;9.75;;
72601;SDS011;60644;55.858;37.390;2022-08-26T07:44:26;12.68;;;9.60;;
72601;SDS011;60644;55.858;37.390;2022-08-26T07:46:52;14.27;;;9.77;;
72601;SDS011;60644;55.858;37.390;2022-08-26T07:49:19;13.97;;;9.50;;
72601;SDS011;60644;55.858;37.390;2022-08-26T07:51:46;17.55;;;10.18;;
72601;SDS011;60644;55.858;37.390;2022-08-26T07:54:12;16.60;;;10.02;;
72601;SDS011;60644;55.858;37.390;2022-08-26T07:56:38;17.80;;;9.40;;
72601;SDS011;60644;55.858;37.390;2022-08-26T07:59:04;19.13;;;10.00;;
72601;SDS011;60644;55.858;37.390;2022-08-26T08:01:30;18.85;;;10.18;;
72601;SDS011;60644;55.858;37.390;2022-08-26T08:03:59;17.08;;;9.90;;
72601;SDS011;60644;55.858;37.390;2022-08-26T08:06:25;15.23;;;10.18;;
72601;SDS011;60644;55.858;37.390;2022-08-26T08:08:51;15.73;;;9.03;;
72601;SDS011;60644;55.858;37.390;2022-08-26T08:11:18;16.48;;;10.25;;
72601;SDS011;60644;55.858;37.390;2022-08-26T08:13:47;13.70;;;9.15;;
72601;SDS011;60644;55.858;37.390;2022-08-26T08:16:14;13.68;;;9.50;;
72601;SDS011;60644;55.858;37.390;2022-08-26T08:18:40;14.27;;;9.10;;
72601;SDS011;60644;55.858;37.390;2022-08-26T08:21:06;15.48;;;8.80;;
72601;SDS011;60644;55.858;37.390;2022-08-26T08:23:32;14.60;;;8.80;;
72601;SDS011;60644;55.858;37.390;2022-08-26T08:25:59;11.57;;;8.38;;
72601;SDS011;60644;55.858;37.390;2022-08-26T08:28:29;12.27;;;8.57;;
72601;SDS011;60644;55.858;37.390;2022-08-26T08:30:55;15.05;;;8.38;;
72601;SDS011;60644;55.858;37.390;2022-08-26T08:33:21;14.18;;;8.70;;
72601;SDS011;60644;55.858;37.390;2022-08-26T08:35:47;15.93;;;8.55;;
72601;SDS011;60644;55.858;37.390;2022-08-26T08:38:14;13.48;;;8.43;;
72601;SDS011;60644;55.858;37.390;2022-08-26T08:40:40;12.83;;;8.37;;
72601;SDS011;60644;55.858;37.390;2022-08-26T08:43:10;15.27;;;9.07;;
72601;SDS011;60644;55.858;37.390;2022-08-26T08:45:43;16.27;;;9.52;;
72601;SDS011;60644;55.858;37.390;2022-08-26T08:53:51;14.43;;;8.27;;
72601;SDS011;60644;55.858;37.390;2022-08-26T08:59:09;14.15;;;8.23;;
72601;SDS011;60644;55.858;37.390;2022-08-26T09:07:09;11.47;;;8.23;;
72601;SDS011;60644;55.858;37.390;2022-08-26T09:09:44;13.32;;;8.18;;
72601;SDS011;60644;55.858;37.390;2022-08-26T09:12:14;15.40;;;9.30;;
72601;SDS011;60644;55.858;37.390;2022-08-26T09:14:45;12.00;;;8.10;;
72601;SDS011;60644;55.858;37.390;2022-08-26T09:19:50;15.57;;;8.40;;
72601;SDS011;60644;55.858;37.390;2022-08-26T09:22:33;12.75;;;8.40;;
72601;SDS011;60644;55.858;37.390;2022-08-26T09:25:02;17.17;;;8.85;;
72601;SDS011;60644;55.858;37.390;2022-08-26T09:30:07;13.85;;;7.60;;
72601;SDS011;60644;55.858;37.390;2022-08-26T09:32:40;12.90;;;8.30;;
72601;SDS011;60644;55.858;37.390;2022-08-26T09:35:22;13.02;;;7.80;;
72601;SDS011;60644;55.858;37.390;2022-08-26T09:38:01;12.65;;;8.35;;
72601;SDS011;60644;55.858;37.390;2022-08-26T09:41:01;14.02;;;8.30;;
72601;SDS011;60644;55.858;37.390;2022-08-26T09:43:32;10.05;;;7.85;;
72601;SDS011;60644;55.858;37.390;2022-08-26T09:48:39;11.20;;;7.93;;
72601;SDS011;60644;55.858;37.390;2022-08-26T09:53:52;14.65;;;7.47;;
72601;SDS011;60644;55.858;37.390;2022-08-26T09:56:25;11.07;;;8.10;;
72601;SDS011;60644;55.858;37.390;2022-08-26T09:58:59;13.63;;;8.67;;
72601;SDS011;60644;55.858;37.390;2022-08-26T10:04:06;14.30;;;8.38;;
72601;SDS011;60644;55.858;37.390;2022-08-26T10:06:41;12.63;;;8.13;;
72601;SDS011;60644;55.858;37.390;2022-08-26T10:09:28;11.25;;;8.25;;
72601;SDS011;60644;55.858;37.390;2022-08-26T10:11:59;13.23;;;8.83;;
72601;SDS011;60644;55.858;37.390;2022-08-26T10:15:07;11.52;;;8.10;;
72601;SDS011;60644;55.858;37.390;2022-08-26T10:18:17;13.30;;;10.60;;
72601;SDS011;60644;55.858;37.390;2022-08-26T10:20:52;12.77;;;8.07;;
72601;SDS011;60644;55.858;37.390;2022-08-26T10:23:23;14.35;;;8.30;;
72601;SDS011;60644;55.858;37.390;2022-08-26T10:26:01;12.87;;;8.70;;
72601;SDS011;60644;55.858;37.390;2022-08-26T10:34:03;14.73;;;7.85;;
72601;SDS011;60644;55.858;37.390;2022-08-26T10:36:34;10.10;;;7.63;;
72601;SDS011;60644;55.858;37.390;2022-08-26T10:39:27;14.57;;;8.13;;
72601;SDS011;60644;55.858;37.390;2022-08-26T10:42:00;13.90;;;8.57;;
72601;SDS011;60644;55.858;37.390;2022-08-26T10:44:32;11.48;;;8.15;;
72601;SDS011;60644;55.858;37.390;2022-08-26T10:47:18;11.60;;;7.75;;
72601;SDS011;60644;55.858;37.390;2022-08-26T10:49:48;12.77;;;8.90;;
72601;SDS011;60644;55.858;37.390;2022-08-26T10:52:21;10.77;;;8.63;;
72601;SDS011;60644;55.858;37.390;2022-08-26T10:57:24;13.30;;;8.27;;
72601;SDS011;60644;55.858;37.390;2022-08-26T10:59:57;11.38;;;8.35;;
72601;SDS011;60644;55.858;37.390;2022-08-26T11:08:47;13.88;;;8.80;;
72601;SDS011;60644;55.858;37.390;2022-08-26T11:16:41;13.17;;;9.17;;
72601;SDS011;60644;55.858;37.390;2022-08-26T11:19:10;12.68;;;8.45;;
72601;SDS011;60644;55.858;37.390;2022-08-26T11:25:03;9.90;;;7.30;;
72601;SDS011;60644;55.858;37.390;2022-08-26T11:35:04;12.90;;;8.20;;
72601;SDS011;60644;55.858;37.390;2022-08-26T11:37:34;12.23;;;8.45;;
72601;SDS011;60644;55.858;37.390;2022-08-26T11:40:08;12.60;;;7.90;;
72601;SDS011;60644;55.858;37.390;2022-08-26T11:42:39;11.52;;;7.75;;
72601;SDS011;60644;55.858;37.390;2022-08-26T11:45:21;11.70;;;8.32;;
72601;SDS011;60644;55.858;37.390;2022-08-26T11:50:39;11.50;;;7.75;;
72601;SDS011;60644;55.858;37.390;2022-08-26T11:53:05;14.57;;;8.37;;
72601;SDS011;60644;55.858;37.390;2022-08-26T11:55:32;9.68;;;7.70;;
72601;SDS011;60644;55.858;37.390;2022-08-26T11:58:00;10.20;;;7.80;;
72601;SDS011;60644;55.858;37.390;2022-08-26T12:00:45;9.65;;;7.55;;
72601;SDS011;60644;55.858;37.390;2022-08-26T12:03:20;11.07;;;7.35;;
72601;SDS011;60644;55.858;37.390;2022-08-26T12:05:49;13.73;;;8.17;;
72601;SDS011;60644;55.858;37.390;2022-08-26T12:08:20;10.80;;;7.53;;
72601;SDS011;60644;55.858;37.390;2022-08-26T12:11:00;12.23;;;7.68;;
72601;SDS011;60644;55.858;37.390;2022-08-26T12:13:38;9.70;;;7.55;;
72601;SDS011;60644;55.858;37.390;2022-08-26T12:16:04;9.25;;;7.57;;
72601;SDS011;60644;55.858;37.390;2022-08-26T12:18:37;9.00;;;7.80;;
72601;SDS011;60644;55.858;37.390;2022-08-26T12:21:11;11.50;;;7.60;;
72601;SDS011;60644;55.858;37.390;2022-08-26T12:23:47;11.88;;;7.43;;
72601;SDS011;60644;55.858;37.390;2022-08-26T12:28:48;14.27;;;7.80;;
72601;SDS011;60644;55.858;37.390;2022-08-26T12:31:29;11.83;;;7.90;;
72601;SDS011;60644;55.858;37.390;2022-08-26T12:33:58;9.93;;;7.47;;
72601;SDS011;60644;55.858;37.390;2022-08-26T12:36:28;9.18;;;7.38;;
72601;SDS011;60644;55.858;37.390;2022-08-26T12:38:57;12.07;;;7.57;;
72601;SDS011;60644;55.858;37.390;2022-08-26T12:41:47;10.32;;;7.30;;
72601;SDS011;60644;55.858;37.390;2022-08-26T12:47:06;9.90;;;7.40;;
72601;SDS011;60644;55.858;37.390;2022-08-26T12:49:56;10.05;;;7.03;;
72601;SDS011;60644;55.858;37.390;2022-08-26T12:52:26;12.68;;;7.45;;
72601;SDS011;60644;55.858;37.390;2022-08-26T12:55:01;13.48;;;7.40;;
72601;SDS011;60644;55.858;37.390;2022-08-26T12:57:41;9.77;;;7.93;;
72601;SDS011;60644;55.858;37.390;2022-08-26T13:00:28;10.65;;;7.70;;
72601;SDS011;60644;55.858;37.390;2022-08-26T13:02:57;11.23;;;7.60;;
72601;SDS011;60644;55.858;37.390;2022-08-26T13:05:30;11.02;;;7.97;;
72601;SDS011;60644;55.858;37.390;2022-08-26T13:08:30;10.55;;;8.25;;
72601;SDS011;60644;55.858;37.390;2022-08-26T13:11:02;11.60;;;8.07;;
72601;SDS011;60644;55.858;37.390;2022-08-26T13:13:34;10.57;;;8.13;;
72601;SDS011;60644;55.858;37.390;2022-08-26T13:15:59;13.73;;;8.30;;
72601;SDS011;60644;55.858;37.390;2022-08-26T13:18:26;13.85;;;8.30;;
72601;SDS011;60644;55.858;37.390;2022-08-26T13:20:52;11.33;;;7.97;;
72601;SDS011;60644;55.858;37.390;2022-08-26T13:23:18;11.02;;;8.13;;
72601;SDS011;60644;55.858;37.390;2022-08-26T13:25:45;11.73;;;7.22;;
72601;SDS011;60644;55.858;37.390;2022-08-26T13:28:11;12.50;;;7.93;;
72601;SDS011;60644;55.858;37.390;2022-08-26T13:30:37;13.38;;;7.82;;
72601;SDS011;60644;55.858;37.390;2022-08-26T13:33:21;10.07;;;7.40;;
72601;SDS011;60644;55.858;37.390;2022-08-26T13:36:17;14.67;;;7.77;;
72601;SDS011;60644;55.858;37.390;2022-08-26T13:38:43;11.60;;;7.47;;
72601;SDS011;60644;55.858;37.390;2022-08-26T13:41:09;9.95;;;6.70;;
72601;SDS011;60644;55.858;37.390;2022-08-26T13:43:35;10.47;;;6.87;;
72601;SDS011;60644;55.858;37.390;2022-08-26T13:46:01;10.77;;;7.20;;
72601;SDS011;60644;55.858;37.390;2022-08-26T13:48:31;9.02;;;6.85;;
72601;SDS011;60644;55.858;37.390;2022-08-26T13:50:59;11.20;;;6.72;;
72601;SDS011;60644;55.858;37.390;2022-08-26T13:53:27;11.07;;;6.93;;
72601;SDS011;60644;55.858;37.390;2022-08-26T13:55:57;10.93;;;6.70;;
72601;SDS011;60644;55.858;37.390;2022-08-26T13:58:24;12.43;;;7.20;;
72601;SDS011;60644;55.858;37.390;2022-08-26T14:00:50;11.07;;;7.18;;
72601;SDS011;60644;55.858;37.390;2022-08-26T14:03:16;10.25;;;6.80;;
72601;SDS011;60644;55.858;37.390;2022-08-26T14:05:42;10.57;;;7.33;;
72601;SDS011;60644;55.858;37.390;2022-08-26T14:08:08;11.98;;;7.10;;
72601;SDS011;60644;55.858;37.390;2022-08-26T14:10:33;10.77;;;7.47;;
72601;SDS011;60644;55.858;37.390;2022-08-26T14:12:59;11.37;;;7.47;;
72601;SDS011;60644;55.858;37.390;2022-08-26T14:15:25;10.63;;;7.85;;
72601;SDS011;60644;55.858;37.390;2022-08-26T14:17:52;12.85;;;7.97;;
72601;SDS011;60644;55.858;37.390;2022-08-26T14:20:23;10.50;;;7.13;;
72601;SDS011;60644;55.858;37.390;2022-08-26T14:22:51;10.07;;;7.17;;
72601;SDS011;60644;55.858;37.390;2022-08-26T14:25:18;9.80;;;7.53;;
72601;SDS011;60644;55.858;37.390;2022-08-26T14:27:46;12.45;;;7.72;;
72601;SDS011;60644;55.858;37.390;2022-08-26T14:30:17;10.02;;;7.22;;
72601;SDS011;60644;55.858;37.390;2022-08-26T14:32:47;10.80;;;7.03;;
72601;SDS011;60644;55.858;37.390;2022-08-26T14:35:21;9.73;;;7.33;;
72601;SDS011;60644;55.858;37.390;2022-08-26T14:37:49;10.07;;;7.22;;
72601;SDS011;60644;55.858;37.390;2022-08-26T14:40:16;10.07;;;7.38;;
72601;SDS011;60644;55.858;37.390;2022-08-26T14:42:47;11.52;;;7.15;;
72601;SDS011;60644;55.858;37.390;2022-08-26T14:45:19;10.27;;;7.10;;
72601;SDS011;60644;55.858;37.390;2022-08-26T14:47:47;11.47;;;6.87;;
72601;SDS011;60644;55.858;37.390;2022-08-26T14:50:17;11.35;;;7.50;;
72601;SDS011;60644;55.858;37.390;2022-08-26T14:52:45;10.43;;;8.55;;
72601;SDS011;60644;55.858;37.390;2022-08-26T14:55:29;11.63;;;8.60;;
72601;SDS011;60644;55.858;37.390;2022-08-26T14:57:58;10.13;;;7.63;;
72601;SDS011;60644;55.858;37.390;2022-08-26T15:00:24;12.03;;;7.70;;
72601;SDS011;60644;55.858;37.390;2022-08-26T15:02:50;10.82;;;7.28;;
72601;SDS011;60644;55.858;37.390;2022-08-26T15:05:16;9.73;;;7.40;;
72601;SDS011;60644;55.858;37.390;2022-08-26T15:07:42;12.03;;;7.87;;
72601;SDS011;60644;55.858;37.390;2022-08-26T15:10:10;12.48;;;7.82;;
72601;SDS011;60644;55.858;37.390;2022-08-26T15:12:38;11.50;;;8.40;;
72601;SDS011;60644;55.858;37.390;2022-08-26T15:15:06;12.75;;;8.32;;
72601;SDS011;60644;55.858;37.390;2022-08-26T15:17:33;13.10;;;7.95;;
72601;SDS011;60644;55.858;37.390;2022-08-26T15:20:00;14.90;;;8.63;;
72601;SDS011;60644;55.858;37.390;2022-08-26T15:22:26;14.77;;;8.13;;
72601;SDS011;60644;55.858;37.390;2022-08-26T15:24:52;12.68;;;8.05;;
72601;SDS011;60644;55.858;37.390;2022-08-26T15:27:18;12.57;;;7.88;;
72601;SDS011;60644;55.858;37.390;2022-08-26T15:29:44;11.77;;;7.97;;
72601;SDS011;60644;55.858;37.390;2022-08-26T15:32:10;12.15;;;9.02;;
72601;SDS011;60644;55.858;37.390;2022-08-26T15:34:37;14.23;;;8.65;;
72601;SDS011;60644;55.858;37.390;2022-08-26T15:37:03;10.88;;;8.18;;
72601;SDS011;60644;55.858;37.390;2022-08-26T15:39:29;11.70;;;8.00;;
72601;SDS011;60644;55.858;37.390;2022-08-26T15:41:55;14.13;;;8.80;;
72601;SDS011;60644;55.858;37.390;2022-08-26T15:44:24;11.68;;;8.50;;